sensor_id;sensor_type;location;lat;lon;timestamp;temperature;humidity
33988;DHT22;37428;53.580;-1.666;2023-05-07T00:00:18;13.90;99.90
33988;DHT22;37428;53.580;-1.666;2023-05-07T00:03:20;13.80;99.90
33988;DHT22;37428;53.580;-1.666;2023-05-07T00:06:24;13.80;99.90
33988;DHT22;37428;53.580;-1.666;2023-05-07T00:09:27;13.80;99.90
33988;DHT22;37428;53.580;-1.666;2023-05-07T00:12:29;13.80;99.90
33988;DHT22;37428;53.580;-1.666;2023-05-07T00:15:31;13.80;99.90
33988;DHT22;37428;53.580;-1.666;2023-05-07T00:18:34;13.70;99.90
33988;DHT22;37428;53.580;-1.666;2023-05-07T00:21:37;13.70;99.90
33988;DHT22;37428;53.580;-1.666;2023-05-07T00:24:39;13.70;99.90
33988;DHT22;37428;53.580;-1.666;2023-05-07T00:27:42;13.70;99.90
33988;DHT22;37428;53.580;-1.666;2023-05-07T00:30:44;13.70;99.90
33988;DHT22;37428;53.580;-1.666;2023-05-07T00:33:46;13.70;99.90
33988;DHT22;37428;53.580;-1.666;2023-05-07T00:36:49;13.70;99.90
33988;DHT22;37428;53.580;-1.666;2023-05-07T00:39:52;13.70;99.90
33988;DHT22;37428;53.580;-1.666;2023-05-07T00:42:54;13.70;99.90
33988;DHT22;37428;53.580;-1.666;2023-05-07T00:45:58;13.80;99.90
33988;DHT22;37428;53.580;-1.666;2023-05-07T00:49:01;13.80;99.90
33988;DHT22;37428;53.580;-1.666;2023-05-07T00:52:05;13.80;99.90
33988;DHT22;37428;53.580;-1.666;2023-05-07T00:55:08;13.80;99.90
33988;DHT22;37428;53.580;-1.666;2023-05-07T00:58:10;13.80;99.90
33988;DHT22;37428;53.580;-1.666;2023-05-07T01:01:13;13.70;99.90
33988;DHT22;37428;53.580;-1.666;2023-05-07T01:04:16;13.70;99.90
33988;DHT22;37428;53.580;-1.666;2023-05-07T01:07:20;13.60;99.90
33988;DHT22;37428;53.580;-1.666;2023-05-07T01:10:22;13.60;99.90
33988;DHT22;37428;53.580;-1.666;2023-05-07T01:13:24;13.60;99.90
33988;DHT22;37428;53.580;-1.666;2023-05-07T01:16:26;13.60;99.90
33988;DHT22;37428;53.580;-1.666;2023-05-07T01:19:29;13.60;99.90
33988;DHT22;37428;53.580;-1.666;2023-05-07T01:22:33;13.50;99.90
33988;DHT22;37428;53.580;-1.666;2023-05-07T01:25:37;13.60;99.90
33988;DHT22;37428;53.580;-1.666;2023-05-07T01:28:39;13.50;99.90
33988;DHT22;37428;53.580;-1.666;2023-05-07T01:31:42;13.60;99.90
33988;DHT22;37428;53.580;-1.666;2023-05-07T01:34:45;13.60;99.90
33988;DHT22;37428;53.580;-1.666;2023-05-07T01:37:50;13.60;99.90
33988;DHT22;37428;53.580;-1.666;2023-05-07T01:40:53;13.60;99.90
33988;DHT22;37428;53.580;-1.666;2023-05-07T01:43:55;13.60;99.90
33988;DHT22;37428;53.580;-1.666;2023-05-07T01:46:59;13.60;99.90
33988;DHT22;37428;53.580;-1.666;2023-05-07T01:50:01;13.60;99.90
33988;DHT22;37428;53.580;-1.666;2023-05-07T01:53:05;13.60;99.90
33988;DHT22;37428;53.580;-1.666;2023-05-07T01:56:08;13.60;99.90
33988;DHT22;37428;53.580;-1.666;2023-05-07T01:59:10;13.60;99.90
33988;DHT22;37428;53.580;-1.666;2023-05-07T02:02:14;13.60;99.90
33988;DHT22;37428;53.580;-1.666;2023-05-07T02:05:16;13.60;99.90
33988;DHT22;37428;53.580;-1.666;2023-05-07T02:08:22;13.60;99.90
33988;DHT22;37428;53.580;-1.666;2023-05-07T02:11:24;13.60;99.90
33988;DHT22;37428;53.580;-1.666;2023-05-07T02:14:27;13.60;99.90
33988;DHT22;37428;53.580;-1.666;2023-05-07T02:17:30;13.70;99.90
33988;DHT22;37428;53.580;-1.666;2023-05-07T02:20:33;13.60;99.90
33988;DHT22;37428;53.580;-1.666;2023-05-07T02:23:37;13.60;99.90
33988;DHT22;37428;53.580;-1.666;2023-05-07T02:26:39;13.60;99.90
33988;DHT22;37428;53.580;-1.666;2023-05-07T02:29:41;13.60;99.90
33988;DHT22;37428;53.580;-1.666;2023-05-07T02:32:43;13.60;99.90
33988;DHT22;37428;53.580;-1.666;2023-05-07T02:35:46;13.70;99.90
33988;DHT22;37428;53.580;-1.666;2023-05-07T02:38:49;13.60;99.90
33988;DHT22;37428;53.580;-1.666;2023-05-07T02:41:51;13.70;99.90
33988;DHT22;37428;53.580;-1.666;2023-05-07T02:44:53;13.70;99.90
33988;DHT22;37428;53.580;-1.666;2023-05-07T02:47:55;13.60;99.90
33988;DHT22;37428;53.580;-1.666;2023-05-07T02:50:57;13.60;99.90
33988;DHT22;37428;53.580;-1.666;2023-05-07T02:54:01;13.60;99.90
33988;DHT22;37428;53.580;-1.666;2023-05-07T02:57:03;13.60;99.90
33988;DHT22;37428;53.580;-1.666;2023-05-07T03:00:14;13.60;99.90
33988;DHT22;37428;53.580;-1.666;2023-05-07T03:03:16;13.60;99.90
33988;DHT22;37428;53.580;-1.666;2023-05-07T03:06:18;13.60;99.90
33988;DHT22;37428;53.580;-1.666;2023-05-07T03:09:21;13.60;99.90
33988;DHT22;37428;53.580;-1.666;2023-05-07T03:12:24;13.50;99.90
33988;DHT22;37428;53.580;-1.666;2023-05-07T03:15:26;13.50;99.90
33988;DHT22;37428;53.580;-1.666;2023-05-07T03:18:28;13.60;99.90
33988;DHT22;37428;53.580;-1.666;2023-05-07T03:21:30;13.50;99.90
33988;DHT22;37428;53.580;-1.666;2023-05-07T03:24:35;13.50;99.90
33988;DHT22;37428;53.580;-1.666;2023-05-07T03:27:38;13.50;99.90
33988;DHT22;37428;53.580;-1.666;2023-05-07T03:30:40;13.50;99.90
33988;DHT22;37428;53.580;-1.666;2023-05-07T03:33:50;13.50;99.90
33988;DHT22;37428;53.580;-1.666;2023-05-07T03:36:52;13.50;99.90
33988;DHT22;37428;53.580;-1.666;2023-05-07T03:39:56;13.50;99.90
33988;DHT22;37428;53.580;-1.666;2023-05-07T03:42:59;13.50;99.90
33988;DHT22;37428;53.580;-1.666;2023-05-07T03:46:02;13.50;99.90
33988;DHT22;37428;53.580;-1.666;2023-05-07T03:49:04;13.50;99.90
33988;DHT22;37428;53.580;-1.666;2023-05-07T03:52:06;13.50;99.90
33988;DHT22;37428;53.580;-1.666;2023-05-07T03:55:10;13.50;99.90
33988;DHT22;37428;53.580;-1.666;2023-05-07T03:58:12;13.50;99.90
33988;DHT22;37428;53.580;-1.666;2023-05-07T04:01:14;13.50;99.90
33988;DHT22;37428;53.580;-1.666;2023-05-07T04:04:16;13.50;99.90
33988;DHT22;37428;53.580;-1.666;2023-05-07T04:07:18;13.50;99.90
33988;DHT22;37428;53.580;-1.666;2023-05-07T04:10:22;13.40;99.90
33988;DHT22;37428;53.580;-1.666;2023-05-07T04:13:24;13.40;99.90
33988;DHT22;37428;53.580;-1.666;2023-05-07T04:16:26;13.40;99.90
33988;DHT22;37428;53.580;-1.666;2023-05-07T04:19:28;13.40;99.90
33988;DHT22;37428;53.580;-1.666;2023-05-07T04:22:30;13.40;99.90
33988;DHT22;37428;53.580;-1.666;2023-05-07T04:25:34;13.40;99.90
33988;DHT22;37428;53.580;-1.666;2023-05-07T04:28:36;13.30;99.90
33988;DHT22;37428;53.580;-1.666;2023-05-07T04:31:38;13.30;99.90
33988;DHT22;37428;53.580;-1.666;2023-05-07T04:34:40;13.30;99.90
33988;DHT22;37428;53.580;-1.666;2023-05-07T04:37:43;13.30;99.90
33988;DHT22;37428;53.580;-1.666;2023-05-07T04:40:46;13.20;99.90
33988;DHT22;37428;53.580;-1.666;2023-05-07T04:43:48;13.20;99.90
33988;DHT22;37428;53.580;-1.666;2023-05-07T04:46:50;13.20;99.90
33988;DHT22;37428;53.580;-1.666;2023-05-07T04:49:52;13.20;99.90
33988;DHT22;37428;53.580;-1.666;2023-05-07T04:52:55;13.20;99.90
33988;DHT22;37428;53.580;-1.666;2023-05-07T04:55:58;13.20;99.90
33988;DHT22;37428;53.580;-1.666;2023-05-07T04:59:00;13.20;99.90
33988;DHT22;37428;53.580;-1.666;2023-05-07T05:02:02;13.20;99.90
33988;DHT22;37428;53.580;-1.666;2023-05-07T05:05:06;13.20;99.90
33988;DHT22;37428;53.580;-1.666;2023-05-07T05:08:08;13.20;99.90
33988;DHT22;37428;53.580;-1.666;2023-05-07T05:11:12;13.30;99.90
33988;DHT22;37428;53.580;-1.666;2023-05-07T05:14:14;13.30;99.90
33988;DHT22;37428;53.580;-1.666;2023-05-07T05:17:16;13.30;99.90
33988;DHT22;37428;53.580;-1.666;2023-05-07T05:20:18;13.30;99.90
33988;DHT22;37428;53.580;-1.666;2023-05-07T05:23:20;13.20;99.90
33988;DHT22;37428;53.580;-1.666;2023-05-07T05:26:24;13.20;99.90
33988;DHT22;37428;53.580;-1.666;2023-05-07T05:29:26;13.30;99.90
33988;DHT22;37428;53.580;-1.666;2023-05-07T05:32:30;13.30;99.90
33988;DHT22;37428;53.580;-1.666;2023-05-07T05:35:32;13.30;99.90
33988;DHT22;37428;53.580;-1.666;2023-05-07T05:38:35;13.30;99.90
33988;DHT22;37428;53.580;-1.666;2023-05-07T05:41:39;13.30;99.90
33988;DHT22;37428;53.580;-1.666;2023-05-07T05:44:41;13.30;99.90
33988;DHT22;37428;53.580;-1.666;2023-05-07T05:47:43;13.30;99.90
33988;DHT22;37428;53.580;-1.666;2023-05-07T05:50:45;13.30;99.90
33988;DHT22;37428;53.580;-1.666;2023-05-07T05:53:47;13.30;99.90
33988;DHT22;37428;53.580;-1.666;2023-05-07T05:56:50;13.40;99.90
33988;DHT22;37428;53.580;-1.666;2023-05-07T05:59:53;13.40;99.90
33988;DHT22;37428;53.580;-1.666;2023-05-07T06:02:55;13.40;99.90
33988;DHT22;37428;53.580;-1.666;2023-05-07T06:05:57;13.40;99.90
33988;DHT22;37428;53.580;-1.666;2023-05-07T06:09:00;13.40;99.90
33988;DHT22;37428;53.580;-1.666;2023-05-07T06:12:04;13.50;99.90
33988;DHT22;37428;53.580;-1.666;2023-05-07T06:15:07;13.50;99.90
33988;DHT22;37428;53.580;-1.666;2023-05-07T06:18:08;13.60;99.90
33988;DHT22;37428;53.580;-1.666;2023-05-07T06:21:11;13.60;99.90
33988;DHT22;37428;53.580;-1.666;2023-05-07T06:24:13;13.60;99.90
33988;DHT22;37428;53.580;-1.666;2023-05-07T06:27:16;13.60;99.90
33988;DHT22;37428;53.580;-1.666;2023-05-07T06:30:18;13.60;99.90
33988;DHT22;37428;53.580;-1.666;2023-05-07T06:33:21;13.60;99.90
33988;DHT22;37428;53.580;-1.666;2023-05-07T06:36:23;13.60;99.90
33988;DHT22;37428;53.580;-1.666;2023-05-07T06:39:25;13.70;99.90
33988;DHT22;37428;53.580;-1.666;2023-05-07T06:42:29;13.80;99.80
33988;DHT22;37428;53.580;-1.666;2023-05-07T06:45:32;13.80;99.80
33988;DHT22;37428;53.580;-1.666;2023-05-07T06:48:34;13.80;99.40
33988;DHT22;37428;53.580;-1.666;2023-05-07T06:51:36;13.90;99.00
33988;DHT22;37428;53.580;-1.666;2023-05-07T06:54:40;13.90;99.00
33988;DHT22;37428;53.580;-1.666;2023-05-07T06:57:44;14.00;98.50
33988;DHT22;37428;53.580;-1.666;2023-05-07T07:00:46;14.00;98.80
33988;DHT22;37428;53.580;-1.666;2023-05-07T07:03:48;14.10;98.60
33988;DHT22;37428;53.580;-1.666;2023-05-07T07:06:52;14.10;98.50
33988;DHT22;37428;53.580;-1.666;2023-05-07T07:09:56;14.10;98.50
33988;DHT22;37428;53.580;-1.666;2023-05-07T07:13:02;14.10;98.40
33988;DHT22;37428;53.580;-1.666;2023-05-07T07:16:05;14.10;98.40
33988;DHT22;37428;53.580;-1.666;2023-05-07T07:19:08;14.10;98.30
33988;DHT22;37428;53.580;-1.666;2023-05-07T07:22:10;14.20;98.30
33988;DHT22;37428;53.580;-1.666;2023-05-07T07:25:12;14.30;98.60
33988;DHT22;37428;53.580;-1.666;2023-05-07T07:28:21;14.50;98.70
33988;DHT22;37428;53.580;-1.666;2023-05-07T07:31:23;14.50;97.90
33988;DHT22;37428;53.580;-1.666;2023-05-07T07:34:25;14.60;96.90
33988;DHT22;37428;53.580;-1.666;2023-05-07T07:37:27;14.70;97.30
33988;DHT22;37428;53.580;-1.666;2023-05-07T07:40:31;14.90;97.20
33988;DHT22;37428;53.580;-1.666;2023-05-07T07:43:34;15.00;96.50
33988;DHT22;37428;53.580;-1.666;2023-05-07T07:46:37;15.20;95.90
33988;DHT22;37428;53.580;-1.666;2023-05-07T07:49:39;15.30;94.80
33988;DHT22;37428;53.580;-1.666;2023-05-07T07:52:43;15.50;94.60
33988;DHT22;37428;53.580;-1.666;2023-05-07T07:55:45;15.70;94.30
33988;DHT22;37428;53.580;-1.666;2023-05-07T07:58:50;16.00;93.30
33988;DHT22;37428;53.580;-1.666;2023-05-07T08:01:52;16.10;91.40
33988;DHT22;37428;53.580;-1.666;2023-05-07T08:04:57;16.00;89.70
33988;DHT22;37428;53.580;-1.666;2023-05-07T08:07:59;16.20;90.60
33988;DHT22;37428;53.580;-1.666;2023-05-07T08:11:01;16.30;88.10
33988;DHT22;37428;53.580;-1.666;2023-05-07T08:14:05;16.50;88.10
33988;DHT22;37428;53.580;-1.666;2023-05-07T08:17:07;16.70;87.50
33988;DHT22;37428;53.580;-1.666;2023-05-07T08:20:10;17.00;87.40
33988;DHT22;37428;53.580;-1.666;2023-05-07T08:23:13;17.10;85.30
33988;DHT22;37428;53.580;-1.666;2023-05-07T08:26:17;17.00;84.80
33988;DHT22;37428;53.580;-1.666;2023-05-07T08:29:27;16.80;84.40
33988;DHT22;37428;53.580;-1.666;2023-05-07T08:32:33;16.70;83.30
33988;DHT22;37428;53.580;-1.666;2023-05-07T08:35:38;16.70;84.80
33988;DHT22;37428;53.580;-1.666;2023-05-07T08:38:41;16.70;84.60
33988;DHT22;37428;53.580;-1.666;2023-05-07T08:41:48;17.00;85.30
33988;DHT22;37428;53.580;-1.666;2023-05-07T08:44:57;16.80;83.40
33988;DHT22;37428;53.580;-1.666;2023-05-07T08:48:04;16.70;85.00
33988;DHT22;37428;53.580;-1.666;2023-05-07T08:51:12;16.70;84.90
33988;DHT22;37428;53.580;-1.666;2023-05-07T08:54:23;16.80;84.30
33988;DHT22;37428;53.580;-1.666;2023-05-07T08:57:28;17.40;82.30
33988;DHT22;37428;53.580;-1.666;2023-05-07T09:00:32;18.00;81.60
33988;DHT22;37428;53.580;-1.666;2023-05-07T09:03:34;18.60;80.80
33988;DHT22;37428;53.580;-1.666;2023-05-07T09:06:37;18.90;77.40
33988;DHT22;37428;53.580;-1.666;2023-05-07T09:09:44;19.30;74.60
33988;DHT22;37428;53.580;-1.666;2023-05-07T09:12:47;19.60;74.20
33988;DHT22;37428;53.580;-1.666;2023-05-07T09:15:50;19.60;74.00
33988;DHT22;37428;53.580;-1.666;2023-05-07T09:18:54;19.60;73.50
33988;DHT22;37428;53.580;-1.666;2023-05-07T09:21:59;19.60;74.00
33988;DHT22;37428;53.580;-1.666;2023-05-07T09:25:01;19.30;72.10
33988;DHT22;37428;53.580;-1.666;2023-05-07T09:28:04;19.10;73.60
33988;DHT22;37428;53.580;-1.666;2023-05-07T09:31:10;18.90;73.00
33988;DHT22;37428;53.580;-1.666;2023-05-07T09:34:12;18.50;74.70
33988;DHT22;37428;53.580;-1.666;2023-05-07T09:37:14;18.50;73.70
33988;DHT22;37428;53.580;-1.666;2023-05-07T09:40:21;18.60;74.70
33988;DHT22;37428;53.580;-1.666;2023-05-07T09:43:23;18.80;72.40
33988;DHT22;37428;53.580;-1.666;2023-05-07T09:46:30;18.80;72.40
33988;DHT22;37428;53.580;-1.666;2023-05-07T09:49:34;18.80;71.70
33988;DHT22;37428;53.580;-1.666;2023-05-07T09:52:38;19.00;72.60
33988;DHT22;37428;53.580;-1.666;2023-05-07T09:55:42;19.30;71.20
33988;DHT22;37428;53.580;-1.666;2023-05-07T09:58:45;19.60;72.10
33988;DHT22;37428;53.580;-1.666;2023-05-07T10:01:52;20.00;70.20
33988;DHT22;37428;53.580;-1.666;2023-05-07T10:04:58;20.20;67.30
33988;DHT22;37428;53.580;-1.666;2023-05-07T10:08:03;20.40;69.00
33988;DHT22;37428;53.580;-1.666;2023-05-07T10:11:05;20.60;65.90
33988;DHT22;37428;53.580;-1.666;2023-05-07T10:14:07;20.80;66.40
33988;DHT22;37428;53.580;-1.666;2023-05-07T10:17:11;20.60;65.90
33988;DHT22;37428;53.580;-1.666;2023-05-07T10:20:14;20.30;65.30
33988;DHT22;37428;53.580;-1.666;2023-05-07T10:23:22;20.40;63.90
33988;DHT22;37428;53.580;-1.666;2023-05-07T10:26:25;20.70;65.40
33988;DHT22;37428;53.580;-1.666;2023-05-07T10:29:35;20.90;64.60
33988;DHT22;37428;53.580;-1.666;2023-05-07T10:32:45;21.00;63.70
33988;DHT22;37428;53.580;-1.666;2023-05-07T10:35:49;21.20;62.70
33988;DHT22;37428;53.580;-1.666;2023-05-07T10:38:51;21.40;61.50
33988;DHT22;37428;53.580;-1.666;2023-05-07T10:41:53;21.70;62.30
33988;DHT22;37428;53.580;-1.666;2023-05-07T10:44:56;22.10;61.40
33988;DHT22;37428;53.580;-1.666;2023-05-07T10:48:10;22.40;60.30
33988;DHT22;37428;53.580;-1.666;2023-05-07T10:51:20;22.60;57.90
33988;DHT22;37428;53.580;-1.666;2023-05-07T10:54:22;22.60;61.10
33988;DHT22;37428;53.580;-1.666;2023-05-07T10:57:34;22.70;57.20
33988;DHT22;37428;53.580;-1.666;2023-05-07T11:00:42;22.80;58.50
33988;DHT22;37428;53.580;-1.666;2023-05-07T11:04:13;22.70;57.80
33988;DHT22;37428;53.580;-1.666;2023-05-07T11:07:29;22.90;56.40
33988;DHT22;37428;53.580;-1.666;2023-05-07T11:10:51;23.20;57.10
33988;DHT22;37428;53.580;-1.666;2023-05-07T11:13:53;23.50;55.30
33988;DHT22;37428;53.580;-1.666;2023-05-07T11:17:02;23.60;54.20
33988;DHT22;37428;53.580;-1.666;2023-05-07T11:20:06;23.20;54.70
33988;DHT22;37428;53.580;-1.666;2023-05-07T11:23:12;22.90;54.90
33988;DHT22;37428;53.580;-1.666;2023-05-07T11:26:42;22.60;54.80
33988;DHT22;37428;53.580;-1.666;2023-05-07T11:29:46;22.60;55.80
33988;DHT22;37428;53.580;-1.666;2023-05-07T11:32:49;22.80;54.20
33988;DHT22;37428;53.580;-1.666;2023-05-07T11:35:53;23.10;54.60
33988;DHT22;37428;53.580;-1.666;2023-05-07T11:38:55;23.40;53.20
33988;DHT22;37428;53.580;-1.666;2023-05-07T11:41:57;23.40;51.10
33988;DHT22;37428;53.580;-1.666;2023-05-07T11:45:00;23.50;52.40
33988;DHT22;37428;53.580;-1.666;2023-05-07T11:48:02;23.60;52.30
33988;DHT22;37428;53.580;-1.666;2023-05-07T11:51:06;23.70;51.70
33988;DHT22;37428;53.580;-1.666;2023-05-07T11:54:09;23.90;48.80
33988;DHT22;37428;53.580;-1.666;2023-05-07T11:57:14;24.00;51.00
33988;DHT22;37428;53.580;-1.666;2023-05-07T12:00:17;24.20;50.90
33988;DHT22;37428;53.580;-1.666;2023-05-07T12:03:19;24.40;49.00
33988;DHT22;37428;53.580;-1.666;2023-05-07T12:06:22;24.50;48.80
33988;DHT22;37428;53.580;-1.666;2023-05-07T12:09:25;24.70;48.20
33988;DHT22;37428;53.580;-1.666;2023-05-07T12:12:28;24.70;47.90
33988;DHT22;37428;53.580;-1.666;2023-05-07T12:15:30;24.90;45.10
33988;DHT22;37428;53.580;-1.666;2023-05-07T12:18:33;24.40;47.10
33988;DHT22;37428;53.580;-1.666;2023-05-07T12:21:37;23.80;47.90
33988;DHT22;37428;53.580;-1.666;2023-05-07T12:24:46;23.70;48.60
33988;DHT22;37428;53.580;-1.666;2023-05-07T12:27:51;24.10;46.40
33988;DHT22;37428;53.580;-1.666;2023-05-07T12:30:54;24.30;46.10
33988;DHT22;37428;53.580;-1.666;2023-05-07T12:33:57;23.90;48.90
33988;DHT22;37428;53.580;-1.666;2023-05-07T12:37:03;24.00;50.20
33988;DHT22;37428;53.580;-1.666;2023-05-07T12:40:06;24.30;47.20
33988;DHT22;37428;53.580;-1.666;2023-05-07T12:43:15;24.60;46.00
33988;DHT22;37428;53.580;-1.666;2023-05-07T12:46:18;24.60;47.80
33988;DHT22;37428;53.580;-1.666;2023-05-07T12:49:20;24.30;45.40
33988;DHT22;37428;53.580;-1.666;2023-05-07T12:52:24;24.40;45.50
33988;DHT22;37428;53.580;-1.666;2023-05-07T12:55:26;24.70;46.10
33988;DHT22;37428;53.580;-1.666;2023-05-07T12:58:29;24.70;44.30
33988;DHT22;37428;53.580;-1.666;2023-05-07T13:01:34;24.90;45.80
33988;DHT22;37428;53.580;-1.666;2023-05-07T13:04:36;24.90;44.30
33988;DHT22;37428;53.580;-1.666;2023-05-07T13:07:40;24.30;45.20
33988;DHT22;37428;53.580;-1.666;2023-05-07T13:10:42;23.80;45.70
33988;DHT22;37428;53.580;-1.666;2023-05-07T13:13:45;23.30;47.00
33988;DHT22;37428;53.580;-1.666;2023-05-07T13:16:47;22.90;49.10
33988;DHT22;37428;53.580;-1.666;2023-05-07T13:19:49;23.40;49.20
33988;DHT22;37428;53.580;-1.666;2023-05-07T13:22:53;23.90;44.40
33988;DHT22;37428;53.580;-1.666;2023-05-07T13:25:55;24.40;42.50
33988;DHT22;37428;53.580;-1.666;2023-05-07T13:28:57;24.60;42.30
33988;DHT22;37428;53.580;-1.666;2023-05-07T13:32:13;24.80;42.60
33988;DHT22;37428;53.580;-1.666;2023-05-07T13:35:30;25.10;45.20
33988;DHT22;37428;53.580;-1.666;2023-05-07T13:38:45;25.20;42.80
33988;DHT22;37428;53.580;-1.666;2023-05-07T13:45:48;25.50;42.50
33988;DHT22;37428;53.580;-1.666;2023-05-07T13:49:07;25.70;39.30
33988;DHT22;37428;53.580;-1.666;2023-05-07T13:52:29;25.90;41.60
33988;DHT22;37428;53.580;-1.666;2023-05-07T13:55:52;26.00;39.50
33988;DHT22;37428;53.580;-1.666;2023-05-07T13:59:07;26.20;40.30
33988;DHT22;37428;53.580;-1.666;2023-05-07T14:02:24;26.30;39.20
33988;DHT22;37428;53.580;-1.666;2023-05-07T14:05:27;26.20;42.30
33988;DHT22;37428;53.580;-1.666;2023-05-07T14:08:29;26.20;38.10
33988;DHT22;37428;53.580;-1.666;2023-05-07T14:15:26;26.00;40.00
33988;DHT22;37428;53.580;-1.666;2023-05-07T14:18:40;25.90;40.00
33988;DHT22;37428;53.580;-1.666;2023-05-07T14:21:44;25.90;40.30
33988;DHT22;37428;53.580;-1.666;2023-05-07T14:25:18;25.80;40.20
33988;DHT22;37428;53.580;-1.666;2023-05-07T14:28:52;25.90;40.70
33988;DHT22;37428;53.580;-1.666;2023-05-07T14:32:09;25.90;40.20
33988;DHT22;37428;53.580;-1.666;2023-05-07T14:38:48;25.90;40.20
33988;DHT22;37428;53.580;-1.666;2023-05-07T14:42:21;26.30;39.90
33988;DHT22;37428;53.580;-1.666;2023-05-07T14:45:53;26.10;39.20
33988;DHT22;37428;53.580;-1.666;2023-05-07T14:49:23;25.30;42.00
33988;DHT22;37428;53.580;-1.666;2023-05-07T14:52:31;24.40;42.30
33988;DHT22;37428;53.580;-1.666;2023-05-07T14:56:05;24.10;43.70
33988;DHT22;37428;53.580;-1.666;2023-05-07T14:59:14;24.00;44.80
33988;DHT22;37428;53.580;-1.666;2023-05-07T15:02:28;24.30;42.80
33988;DHT22;37428;53.580;-1.666;2023-05-07T15:07:26;24.20;43.90
33988;DHT22;37428;53.580;-1.666;2023-05-07T15:09:51;24.70;44.40
33988;DHT22;37428;53.580;-1.666;2023-05-07T15:12:54;25.00;42.70
33988;DHT22;37428;53.580;-1.666;2023-05-07T15:16:08;25.30;42.00
33988;DHT22;37428;53.580;-1.666;2023-05-07T15:26:51;24.90;42.20
33988;DHT22;37428;53.580;-1.666;2023-05-07T15:30:15;24.50;41.90
33988;DHT22;37428;53.580;-1.666;2023-05-07T15:33:51;24.00;44.10
33988;DHT22;37428;53.580;-1.666;2023-05-07T15:38:47;23.90;44.50
33988;DHT22;37428;53.580;-1.666;2023-05-07T15:40:45;23.80;44.20
33988;DHT22;37428;53.580;-1.666;2023-05-07T15:44:17;24.20;44.90
33988;DHT22;37428;53.580;-1.666;2023-05-07T15:55:18;24.70;42.80
33988;DHT22;37428;53.580;-1.666;2023-05-07T16:06:04;25.00;40.80
33988;DHT22;37428;53.580;-1.666;2023-05-07T16:09:18;25.10;39.60
33988;DHT22;37428;53.580;-1.666;2023-05-07T16:12:48;25.10;38.60
33988;DHT22;37428;53.580;-1.666;2023-05-07T16:16:21;24.80;38.50
33988;DHT22;37428;53.580;-1.666;2023-05-07T16:19:52;24.80;40.70
33988;DHT22;37428;53.580;-1.666;2023-05-07T16:23:23;24.70;38.30
33988;DHT22;37428;53.580;-1.666;2023-05-07T16:26:57;24.60;41.20
33988;DHT22;37428;53.580;-1.666;2023-05-07T16:30:09;24.10;40.80
33988;DHT22;37428;53.580;-1.666;2023-05-07T16:33:20;23.90;42.90
33988;DHT22;37428;53.580;-1.666;2023-05-07T16:43:58;23.50;42.50
33988;DHT22;37428;53.580;-1.666;2023-05-07T16:48:10;23.40;41.50
33988;DHT22;37428;53.580;-1.666;2023-05-07T16:51:39;23.30;45.10
33988;DHT22;37428;53.580;-1.666;2023-05-07T16:58:40;23.10;43.40
33988;DHT22;37428;53.580;-1.666;2023-05-07T17:02:05;23.10;43.30
33988;DHT22;37428;53.580;-1.666;2023-05-07T17:05:10;23.00;44.90
33988;DHT22;37428;53.580;-1.666;2023-05-07T17:08:18;22.90;42.40
33988;DHT22;37428;53.580;-1.666;2023-05-07T17:11:23;22.50;42.50
33988;DHT22;37428;53.580;-1.666;2023-05-07T17:15:04;22.30;42.60
33988;DHT22;37428;53.580;-1.666;2023-05-07T17:22:33;22.10;43.80
33988;DHT22;37428;53.580;-1.666;2023-05-07T17:26:27;22.00;45.80
33988;DHT22;37428;53.580;-1.666;2023-05-07T17:29:18;22.00;46.10
33988;DHT22;37428;53.580;-1.666;2023-05-07T17:32:22;21.90;46.50
33988;DHT22;37428;53.580;-1.666;2023-05-07T17:39:31;21.50;48.80
33988;DHT22;37428;53.580;-1.666;2023-05-07T17:43:22;21.30;49.70
33988;DHT22;37428;53.580;-1.666;2023-05-07T17:46:12;21.10;49.20
33988;DHT22;37428;53.580;-1.666;2023-05-07T17:49:15;21.00;49.90
33988;DHT22;37428;53.580;-1.666;2023-05-07T17:52:21;20.90;51.10
33988;DHT22;37428;53.580;-1.666;2023-05-07T17:55:32;20.70;51.00
33988;DHT22;37428;53.580;-1.666;2023-05-07T17:58:39;20.70;50.40
33988;DHT22;37428;53.580;-1.666;2023-05-07T18:02:05;20.60;51.70
33988;DHT22;37428;53.580;-1.666;2023-05-07T18:05:25;20.60;51.10
33988;DHT22;37428;53.580;-1.666;2023-05-07T18:08:53;20.50;52.10
33988;DHT22;37428;53.580;-1.666;2023-05-07T18:11:57;20.50;52.80
33988;DHT22;37428;53.580;-1.666;2023-05-07T18:14:59;20.40;53.70
33988;DHT22;37428;53.580;-1.666;2023-05-07T18:21:34;20.10;55.90
33988;DHT22;37428;53.580;-1.666;2023-05-07T18:25:08;20.00;54.60
33988;DHT22;37428;53.580;-1.666;2023-05-07T18:31:56;19.80;55.70
33988;DHT22;37428;53.580;-1.666;2023-05-07T18:35:22;19.70;56.90
33988;DHT22;37428;53.580;-1.666;2023-05-07T18:38:43;19.60;55.90
33988;DHT22;37428;53.580;-1.666;2023-05-07T18:42:03;19.50;56.60
33988;DHT22;37428;53.580;-1.666;2023-05-07T18:45:33;19.40;57.60
33988;DHT22;37428;53.580;-1.666;2023-05-07T18:48:45;19.20;58.10
33988;DHT22;37428;53.580;-1.666;2023-05-07T18:55:49;19.00;59.60
33988;DHT22;37428;53.580;-1.666;2023-05-07T18:58:54;18.90;60.60
33988;DHT22;37428;53.580;-1.666;2023-05-07T19:01:57;18.90;61.20
33988;DHT22;37428;53.580;-1.666;2023-05-07T19:05:01;18.80;62.30
33988;DHT22;37428;53.580;-1.666;2023-05-07T19:08:03;18.80;63.00
33988;DHT22;37428;53.580;-1.666;2023-05-07T19:11:06;18.70;63.80
33988;DHT22;37428;53.580;-1.666;2023-05-07T19:14:08;18.60;65.10
33988;DHT22;37428;53.580;-1.666;2023-05-07T19:17:42;18.50;66.10
33988;DHT22;37428;53.580;-1.666;2023-05-07T19:20:48;18.40;66.30
33988;DHT22;37428;53.580;-1.666;2023-05-07T19:24:05;18.30;67.80
33988;DHT22;37428;53.580;-1.666;2023-05-07T19:27:09;18.20;68.10
33988;DHT22;37428;53.580;-1.666;2023-05-07T19:30:11;18.10;68.90
33988;DHT22;37428;53.580;-1.666;2023-05-07T19:33:18;18.00;69.40
33988;DHT22;37428;53.580;-1.666;2023-05-07T19:36:31;17.90;70.20
33988;DHT22;37428;53.580;-1.666;2023-05-07T19:39:36;17.90;69.90
33988;DHT22;37428;53.580;-1.666;2023-05-07T19:42:41;17.80;70.80
33988;DHT22;37428;53.580;-1.666;2023-05-07T19:45:45;17.80;71.10
33988;DHT22;37428;53.580;-1.666;2023-05-07T19:48:51;17.70;71.30
33988;DHT22;37428;53.580;-1.666;2023-05-07T19:51:54;17.60;72.00
33988;DHT22;37428;53.580;-1.666;2023-05-07T19:55:02;17.60;72.30
33988;DHT22;37428;53.580;-1.666;2023-05-07T19:58:15;17.50;72.40
33988;DHT22;37428;53.580;-1.666;2023-05-07T20:01:24;17.50;72.70
33988;DHT22;37428;53.580;-1.666;2023-05-07T20:04:28;17.40;73.10
33988;DHT22;37428;53.580;-1.666;2023-05-07T20:08:02;17.30;73.10
33988;DHT22;37428;53.580;-1.666;2023-05-07T20:11:14;17.30;73.10
33988;DHT22;37428;53.580;-1.666;2023-05-07T20:14:16;17.10;73.50
33988;DHT22;37428;53.580;-1.666;2023-05-07T20:17:24;17.00;74.00
33988;DHT22;37428;53.580;-1.666;2023-05-07T20:20:38;17.00;74.00
33988;DHT22;37428;53.580;-1.666;2023-05-07T20:24:09;16.90;74.40
33988;DHT22;37428;53.580;-1.666;2023-05-07T20:27:23;16.90;74.80